Time;durP1;ratioP1;P1;durP2;ratioP2;P2;SDS_P1;SDS_P2;PMS_P1;PMS_P2;Temp;Humidity;BMP_temperature;BMP_pressure;BME280_temperature;BME280_humidity;BME280_pressure;Samples;Min_cycle;Max_cycle;Signal;HPM_P1;HPM_P2
2022/11/16 00:01:12;;;;;;;4.97;3.53;;;;;;;-148.88;97.14;74940.47;5012062;28;20068;-83
2022/11/16 00:03:38;;;;;;;5.68;3.92;;;;;;;-148.88;97.00;74940.47;5012006;28;20025;-83
2022/11/16 00:06:05;;;;;;;5.90;4.18;;;;;;;-148.88;97.66;74952.63;5011801;28;20022;-82
2022/11/16 00:08:33;;;;;;;7.07;4.03;;;;;;;-148.88;98.39;74952.63;5013471;28;20129;-83
2022/11/16 00:11:11;;;;;;;7.00;4.43;;;;;;;-148.88;99.68;74960.75;5013564;28;20029;-84
2022/11/16 00:13:38;;;;;;;7.28;4.32;;;;;;;-148.88;100.00;74977.00;5014494;28;20507;-82
2022/11/16 00:16:05;;;;;;;8.65;4.72;;;;;;;-148.88;100.00;74974.97;5012119;28;20444;-83
2022/11/16 00:18:31;;;;;;;6.45;4.50;;;;;;;-148.88;100.00;74981.06;5013688;28;20095;-82
2022/11/16 00:20:56;;;;;;;5.38;4.50;;;;;;;-148.88;100.00;74989.19;5013214;28;20026;-83
2022/11/16 00:23:22;;;;;;;6.57;4.50;;;;;;;-148.88;100.00;74995.28;5013121;28;20037;-83
2022/11/16 00:25:47;;;;;;;7.00;4.70;;;;;;;-148.88;100.00;74997.31;5013468;28;20026;-83
2022/11/16 00:28:13;;;;;;;6.80;4.53;;;;;;;-148.88;100.00;74999.34;5012804;28;20022;-82
2022/11/16 00:30:38;;;;;;;6.70;4.88;;;;;;;-148.88;100.00;75001.38;5015022;28;20018;-83
2022/11/16 00:33:05;;;;;;;8.05;5.00;;;;;;;-148.88;100.00;75003.41;5015590;28;20026;-82
2022/11/16 00:35:30;;;;;;;6.07;4.93;;;;;;;-148.88;100.00;74997.31;5015071;28;20504;-83
2022/11/16 00:37:56;;;;;;;8.50;4.60;;;;;;;-148.88;100.00;75001.38;5016143;28;20026;-83
2022/11/16 00:40:21;;;;;;;6.75;5.18;;;;;;;-148.88;100.00;75001.38;5016375;28;20034;-83
2022/11/16 00:42:47;;;;;;;7.28;4.90;;;;;;;-148.88;100.00;75005.44;5016316;28;20033;-83
2022/11/16 00:45:12;;;;;;;7.93;5.65;;;;;;;-148.88;100.00;75009.50;5016425;28;20044;-82
2022/11/16 00:47:38;;;;;;;8.60;5.60;;;;;;;-148.88;100.00;75007.47;5014826;28;20491;-82
2022/11/16 00:50:04;;;;;;;7.47;5.35;;;;;;;-148.88;100.00;75009.50;5016180;28;20088;-82
2022/11/16 00:52:29;;;;;;;7.53;5.88;;;;;;;-148.88;100.00;75009.50;5016496;28;20049;-82
2022/11/16 00:54:54;;;;;;;6.90;5.00;;;;;;;-148.88;100.00;75005.44;5014952;28;20472;-83
2022/11/16 00:57:20;;;;;;;8.00;5.72;;;;;;;-148.88;100.00;75009.50;5016578;28;20337;-83
2022/11/16 00:59:45;;;;;;;9.43;5.88;;;;;;;-148.88;100.00;75013.56;5016012;28;20096;-82
2022/11/16 01:02:10;;;;;;;7.15;4.10;;;;;;;-148.88;100.00;75013.56;5015751;28;20083;-83
2022/11/16 01:04:36;;;;;;;8.88;6.45;;;;;;;-148.88;100.00;75011.53;5015276;28;20507;-83
2022/11/16 01:07:01;;;;;;;8.82;6.80;;;;;;;-148.88;100.00;75013.56;5015170;28;20041;-82
2022/11/16 01:09:26;;;;;;;7.95;6.10;;;;;;;-148.88;100.00;75013.56;5014990;28;20026;-82
2022/11/16 01:12:11;;;;;;;9.05;6.50;;;;;;;-148.88;100.00;75005.44;5014464;28;20049;-82
2022/11/16 01:14:39;;;;;;;8.70;4.47;;;;;;;-148.88;100.00;75011.53;5014298;28;20076;-81
2022/11/16 01:17:06;;;;;;;8.70;4.35;;;;;;;-148.88;100.00;75013.56;5014299;28;20022;-82
2022/11/16 01:19:31;;;;;;;8.88;4.72;;;;;;;-148.88;100.00;75017.63;5015517;28;20041;-82
2022/11/16 01:21:57;;;;;;;8.05;6.60;;;;;;;-148.88;100.00;75021.69;5015696;28;20066;-82
2022/11/16 01:24:26;;;;;;;8.43;4.75;;;;;;;-148.88;100.00;75017.63;5015482;28;20163;-83
2022/11/16 01:26:55;;;;;;;8.75;7.22;;;;;;;-148.88;100.00;75017.63;5015783;28;20026;-83
2022/11/16 01:29:21;;;;;;;9.45;7.57;;;;;;;-148.88;100.00;75025.75;5014544;28;20068;-83
2022/11/16 01:31:46;;;;;;;9.02;7.13;;;;;;;-148.88;100.00;75025.75;5014660;28;20026;-83
2022/11/16 01:34:12;;;;;;;11.73;7.43;;;;;;;-148.88;100.00;75023.72;5015770;28;20034;-82
2022/11/16 01:36:37;;;;;;;10.27;7.43;;;;;;;-148.88;100.00;75027.78;5014507;28;20030;-83
2022/11/16 01:39:03;;;;;;;12.13;5.68;;;;;;;-148.88;100.00;75025.75;5013961;28;20527;-83
2022/11/16 01:41:29;;;;;;;10.32;5.05;;;;;;;-148.88;100.00;75025.75;5014217;28;20101;-83
2022/11/16 01:44:04;;;;;;;7.78;4.90;;;;;;;-148.88;100.00;75027.78;5015613;28;20030;-82
2022/11/16 01:46:32;;;;;;;11.05;5.60;;;;;;;-148.88;100.00;75029.81;5015765;28;20164;-83
2022/11/16 01:49:03;;;;;;;10.73;8.15;;;;;;;-148.88;100.00;75027.78;5015941;28;20034;-83
2022/11/16 01:51:28;;;;;;;10.68;8.35;;;;;;;-148.88;100.00;75021.69;5015792;28;20022;-83
2022/11/16 01:53:55;;;;;;;9.68;7.75;;;;;;;-148.88;100.00;75025.75;5017335;28;20433;-84
2022/11/16 01:56:22;;;;;;;11.57;6.18;;;;;;;-148.88;100.00;75023.72;5020944;28;20030;-83
2022/11/16 01:58:48;;;;;;;10.32;8.38;;;;;;;-148.88;100.00;75023.72;5021154;28;20022;-83
2022/11/16 02:01:13;;;;;;;9.75;8.45;;;;;;;-148.88;100.00;75019.66;5019310;28;20440;-83
2022/11/16 02:03:39;;;;;;;12.82;8.65;;;;;;;-148.88;100.00;75025.75;5019479;28;20022;-83
2022/11/16 02:06:18;;;;;;;10.93;8.18;;;;;;;-148.88;100.00;75027.78;5018354;28;20017;-83
2022/11/16 02:12:05;;;;;;;14.43;7.15;;;;;;;-148.88;100.00;75023.72;5020094;28;20060;-83
2022/11/16 02:14:57;;;;;;;10.98;6.47;;;;;;;-148.88;100.00;75023.72;5014863;28;20088;-82
2022/11/16 02:17:46;;;;;;;11.38;6.30;;;;;;;-148.88;100.00;75027.78;5014642;28;20017;-82
2022/11/16 02:20:24;;;;;;;12.70;9.60;;;;;;;-148.88;100.00;75013.56;5013018;28;20038;-82
2022/11/16 02:23:11;;;;;;;13.90;6.32;;;;;;;-148.88;100.00;75023.72;5013533;28;20064;-81
2022/11/16 02:26:04;;;;;;;12.85;6.18;;;;;;;-148.88;100.00;75017.63;5015180;28;20104;-80
2022/11/16 02:28:47;;;;;;;11.43;6.72;;;;;;;-148.88;100.00;75021.69;5018618;28;20057;-83
2022/11/16 02:31:18;;;;;;;14.13;6.82;;;;;;;-148.88;100.00;75015.59;5018088;28;20438;-83
2022/11/16 02:33:47;;;;;;;9.77;6.40;;;;;;;-148.88;100.00;75017.63;5019159;28;20081;-83
2022/11/16 02:36:17;;;;;;;13.02;6.97;;;;;;;-148.88;100.00;75013.56;5016955;28;20492;-83
2022/11/16 02:39:06;;;;;;;15.30;6.90;;;;;;;-148.88;100.00;75009.50;5019462;28;20057;-83
2022/11/16 02:41:36;;;;;;;12.85;7.13;;;;;;;-148.88;100.00;75005.44;5018869;28;20038;-84
2022/11/16 02:44:10;;;;;;;12.35;9.45;;;;;;;-148.88;100.00;75001.38;5013643;28;20092;-81
2022/11/16 02:46:37;;;;;;;11.80;6.45;;;;;;;-148.88;100.00;75005.44;5015691;28;20057;-82
2022/11/16 02:49:14;;;;;;;12.50;9.57;;;;;;;-148.88;100.00;74999.34;5014266;28;20025;-81
2022/11/16 02:51:41;;;;;;;12.68;9.70;;;;;;;-148.88;100.00;75001.38;5014556;28;20033;-82
2022/11/16 02:54:15;;;;;;;15.65;10.35;;;;;;;-148.88;100.00;75009.50;5014557;28;20056;-82
2022/11/16 02:57:03;;;;;;;12.65;6.72;;;;;;;-148.88;100.00;75001.38;5014100;28;20554;-83
2022/11/16 02:59:44;;;;;;;11.13;6.45;;;;;;;-148.88;100.00;75005.44;5015594;28;20034;-84
2022/11/16 03:02:24;;;;;;;14.85;7.25;;;;;;;-148.88;100.00;75001.38;5016342;28;20025;-84
2022/11/16 03:04:56;;;;;;;15.27;8.07;;;;;;;-148.88;100.00;75003.41;5016179;28;20084;-84
2022/11/16 03:07:28;;;;;;;16.98;7.43;;;;;;;-148.88;100.00;75009.50;5016211;28;20388;-84
2022/11/16 03:09:55;;;;;;;15.60;11.35;;;;;;;-148.88;100.00;75011.53;5016467;28;20037;-84
2022/11/16 03:12:24;;;;;;;14.45;10.93;;;;;;;-148.88;100.00;75001.38;5016026;28;20026;-83
2022/11/16 03:14:54;;;;;;;14.20;7.68;;;;;;;-148.88;100.00;75001.38;5019946;28;20084;-84
2022/11/16 03:17:30;;;;;;;13.18;6.90;;;;;;;-148.88;100.00;74999.34;5018555;28;20393;-84
2022/11/16 03:20:11;;;;;;;15.07;7.55;;;;;;;-148.88;100.00;74997.31;5014785;28;20033;-84
2022/11/16 03:22:38;;;;;;;14.90;7.38;;;;;;;-148.88;100.00;74999.34;5014209;28;20037;-84
2022/11/16 03:25:06;;;;;;;14.88;8.40;;;;;;;-148.88;100.00;74997.31;5013681;28;20459;-84
2022/11/16 03:27:38;;;;;;;14.25;7.32;;;;;;;-148.88;100.00;74993.25;5013785;28;20030;-84
2022/11/16 03:30:07;;;;;;;15.20;7.53;;;;;;;-148.88;100.00;74997.31;5016041;28;20388;-84
2022/11/16 03:32:50;;;;;;;15.07;7.40;;;;;;;-148.88;100.00;74989.19;5014499;28;20112;-84
2022/11/16 03:35:20;;;;;;;15.52;8.50;;;;;;;-148.88;100.00;74989.19;5014502;28;20116;-84
2022/11/16 03:37:46;;;;;;;14.88;8.07;;;;;;;-148.88;100.00;74985.13;5014550;28;20030;-84
2022/11/16 03:40:14;;;;;;;17.50;12.30;;;;;;;-148.88;100.00;74989.19;5015191;28;20033;-83
2022/11/16 03:42:43;;;;;;;13.75;7.75;;;;;;;-148.88;100.00;74981.06;5012709;28;20120;-83
2022/11/16 03:45:09;;;;;;;16.20;8.40;;;;;;;-148.88;100.00;74983.09;5013803;28;20026;-82
2022/11/16 03:47:35;;;;;;;16.35;8.82;;;;;;;-148.88;100.00;74972.94;5014243;28;20504;-83
2022/11/16 03:50:00;;;;;;;16.33;8.23;;;;;;;-148.88;100.00;74985.13;5013732;28;20026;-82
2022/11/16 03:52:25;;;;;;;15.50;7.65;;;;;;;-148.88;100.00;74981.06;5015559;28;20022;-82
2022/11/16 03:54:51;;;;;;;15.05;7.15;;;;;;;-148.88;100.00;74985.13;5015651;28;20420;-84
2022/11/16 03:57:17;;;;;;;16.73;8.10;;;;;;;-148.88;100.00;74972.94;5014322;28;20093;-83
2022/11/16 03:59:44;;;;;;;18.70;12.82;;;;;;;-148.88;100.00;74972.94;5014045;28;20105;-81
2022/11/16 04:02:09;;;;;;;17.60;12.82;;;;;;;-148.88;100.00;74977.00;5014638;28;20026;-83
2022/11/16 04:29:12;;;;;;;;;;;;;;;-148.88;100.00;74985.13;5019540;28;20021;-81
2022/11/16 04:39:51;;;;;;;16.05;8.35;;;;;;;-148.88;100.00;74989.19;5022223;28;19971;-81
2022/11/16 04:42:21;;;;;;;16.83;9.00;;;;;;;-148.88;100.00;74993.25;5019931;28;20030;-81
2022/11/16 04:47:30;;;;;;;16.95;9.00;;;;;;;-148.88;100.00;75001.38;5021438;28;20060;-81
2022/11/16 04:49:56;;;;;;;19.48;9.82;;;;;;;-148.88;100.00;75001.38;5020835;28;20025;-81
2022/11/16 04:52:21;;;;;;;19.25;9.98;;;;;;;-148.88;100.00;75001.38;5020020;28;20022;-81
2022/11/16 04:54:46;;;;;;;21.25;15.18;;;;;;;-148.88;100.00;74997.31;5020261;28;20096;-81
2022/11/16 04:57:12;;;;;;;22.27;15.07;;;;;;;-148.88;100.00;74997.31;5019751;28;20467;-81
2022/11/16 04:59:37;;;;;;;23.83;16.05;;;;;;;-148.88;100.00;75003.41;5020326;28;20041;-81
2022/11/16 05:02:09;;;;;;;19.67;9.40;;;;;;;-148.88;100.00;75007.47;5020624;28;20121;-81
2022/11/16 05:04:39;;;;;;;20.70;10.15;;;;;;;-148.88;100.00;75005.44;5019001;28;20065;-81
2022/11/16 05:07:10;;;;;;;17.77;9.88;;;;;;;-148.88;100.00;74999.34;5020657;28;20054;-81
2022/11/16 05:09:47;;;;;;;20.42;11.18;;;;;;;-148.88;100.00;74999.34;5016929;28;20049;-80
2022/11/16 05:12:15;;;;;;;19.05;9.73;;;;;;;-148.88;100.00;74997.31;5015465;28;20029;-80
2022/11/16 05:14:41;;;;;;;18.25;10.00;;;;;;;-148.88;100.00;74993.25;5014576;28;20076;-79
2022/11/16 05:17:07;;;;;;;18.38;9.55;;;;;;;-148.88;100.00;74997.31;5015692;28;20025;-79
2022/11/16 05:22:17;;;;;;;20.83;10.63;;;;;;;-148.88;100.00;74995.28;5019077;28;20583;-80
2022/11/16 05:24:42;;;;;;;19.65;10.82;;;;;;;-148.88;100.00;74993.25;5020394;28;20022;-81
2022/11/16 05:27:13;;;;;;;21.35;11.35;;;;;;;-148.88;100.00;74997.31;5017557;28;20116;-80
2022/11/16 05:29:39;;;;;;;24.38;10.65;;;;;;;-148.88;100.00;74995.28;5019451;28;20087;-80
2022/11/16 05:32:06;;;;;;;28.00;12.35;;;;;;;-148.88;100.00;74991.22;5017205;28;20057;-80
2022/11/16 05:34:32;;;;;;;20.45;11.48;;;;;;;-148.88;100.00;74991.22;5018315;28;20030;-81
2022/11/16 05:36:58;;;;;;;24.05;12.15;;;;;;;-148.88;100.00;75001.38;5018818;28;20026;-81
2022/11/16 05:39:23;;;;;;;23.30;11.07;;;;;;;-148.88;100.00;74997.31;5020914;28;20025;-81
2022/11/16 05:41:49;;;;;;;20.80;10.20;;;;;;;-148.88;100.00;74999.34;5019558;28;20022;-82
2022/11/16 05:44:15;;;;;;;26.30;18.52;;;;;;;-148.88;100.00;75003.41;5019334;28;20472;-82
2022/11/16 05:46:41;;;;;;;21.70;12.07;;;;;;;-148.88;100.00;75001.38;5016666;28;20053;-81
2022/11/16 05:49:07;;;;;;;24.90;12.23;;;;;;;-148.88;100.00;74997.31;5018691;28;20030;-81
2022/11/16 05:51:34;;;;;;;25.60;12.50;;;;;;;-148.88;100.00;75001.38;5016718;28;20030;-82
2022/11/16 05:54:00;;;;;;;23.90;12.75;;;;;;;-148.88;100.00;74993.25;5017754;28;20036;-82
2022/11/16 05:56:25;;;;;;;25.05;12.45;;;;;;;-148.88;100.00;74999.34;5015976;28;20080;-82
2022/11/16 05:58:50;;;;;;;27.52;19.55;;;;;;;-148.88;100.00;74997.31;5018191;28;20061;-82
2022/11/16 06:01:31;;;;;;;25.55;12.00;;;;;;;-148.88;100.00;75005.44;5028724;28;20036;-82
2022/11/16 06:04:00;;;;;;;22.92;11.50;;;;;;;-148.88;100.00;75005.44;5022850;28;20032;-82
2022/11/16 06:06:27;;;;;;;21.23;11.65;;;;;;;-148.88;100.00;75001.38;5019525;28;20025;-82
2022/11/16 06:08:52;;;;;;;22.05;11.20;;;;;;;-148.88;100.00;75005.44;5019565;28;20029;-83
2022/11/16 06:11:19;;;;;;;27.02;18.70;;;;;;;-148.88;100.00;74997.31;5019376;28;20057;-85
2022/11/16 06:13:44;;;;;;;23.77;11.90;;;;;;;-148.88;100.00;75005.44;5015778;28;20030;-85
2022/11/16 06:16:10;;;;;;;26.05;11.10;;;;;;;-148.88;100.00;75007.47;5015759;28;20125;-85
2022/11/16 06:18:40;;;;;;;24.95;11.90;;;;;;;-148.88;100.00;75013.56;5016666;28;20105;-85
2022/11/16 06:21:07;;;;;;;25.42;12.23;;;;;;;-148.88;100.00;75019.66;5017160;28;20137;-84
2022/11/16 06:23:33;;;;;;;23.85;11.90;;;;;;;-148.88;100.00;75017.63;5015610;28;20476;-84
2022/11/16 06:25:59;;;;;;;23.98;12.48;;;;;;;-148.88;100.00;75025.75;5014635;28;20117;-84
2022/11/16 06:28:24;;;;;;;23.42;12.30;;;;;;;-148.88;100.00;75025.75;5014299;28;20046;-84
2022/11/16 06:30:50;;;;;;;28.63;12.90;;;;;;;-148.88;100.00;75029.81;5017687;28;20025;-83
2022/11/16 06:33:15;;;;;;;27.80;13.43;;;;;;;-148.88;100.00;75027.78;5014586;28;20484;-86
2022/11/16 06:35:41;;;;;;;29.67;20.27;;;;;;;-148.88;100.00;75033.88;5016222;28;20029;-84
2022/11/16 06:38:06;;;;;;;31.38;21.35;;;;;;;-148.88;100.00;75025.75;5016191;28;20022;-84
2022/11/16 06:40:32;;;;;;;24.40;12.18;;;;;;;-148.88;100.00;75027.78;5018439;28;20022;-84
2022/11/16 06:42:58;;;;;;;24.88;12.63;;;;;;;-148.88;100.00;75025.75;5014882;28;20026;-84
2022/11/16 06:45:24;;;;;;;22.05;11.40;;;;;;;-148.88;100.00;75033.88;5015069;28;20026;-84
2022/11/16 06:47:50;;;;;;;25.73;12.90;;;;;;;-148.88;100.00;75031.84;5016264;28;20072;-84
2022/11/16 06:50:18;;;;;;;26.90;12.55;;;;;;;-148.88;100.00;75035.91;5017279;28;20026;-85
2022/11/16 06:52:45;;;;;;;23.98;11.65;;;;;;;-148.88;100.00;75035.91;5013095;28;20014;-84
2022/11/16 06:55:10;;;;;;;28.40;11.90;;;;;;;-148.88;100.00;75042.00;5015458;28;20473;-85
2022/11/16 06:57:36;;;;;;;27.15;12.98;;;;;;;-148.88;100.00;75042.00;5015212;28;20037;-86
2022/11/16 07:00:02;;;;;;;34.28;21.77;;;;;;;-148.88;100.00;75046.06;5014745;28;20026;-85
2022/11/16 07:02:28;;;;;;;34.10;23.02;;;;;;;-148.88;100.00;75050.13;5015382;28;20026;-85
2022/11/16 07:04:53;;;;;;;27.42;13.70;;;;;;;-148.88;100.00;75058.25;5015382;28;20044;-84
2022/11/16 07:07:18;;;;;;;25.30;13.18;;;;;;;-148.88;100.00;75058.25;5013085;28;20049;-84
2022/11/16 07:09:44;;;;;;;24.48;13.15;;;;;;;-148.88;100.00;75068.41;5013157;28;20113;-85
2022/11/16 07:12:09;;;;;;;30.58;13.00;;;;;;;-148.88;100.00;75066.38;5013183;28;20026;-85
2022/11/16 07:14:35;;;;;;;27.58;13.60;;;;;;;-148.88;100.00;75066.38;5014946;28;20382;-86
2022/11/16 07:17:00;;;;;;;32.83;13.63;;;;;;;-148.88;100.00;75070.44;5013554;28;20073;-84
2022/11/16 07:19:25;;;;;;;24.85;13.30;;;;;;;-148.88;100.00;75066.38;5014390;28;20026;-85
2022/11/16 07:21:50;;;;;;;28.30;13.98;;;;;;;-148.88;100.00;75074.50;5011116;28;20022;-84
2022/11/16 07:24:16;;;;;;;28.83;14.52;;;;;;;-148.88;100.00;75068.41;5015447;28;20112;-84
2022/11/16 07:26:41;;;;;;;27.10;13.43;;;;;;;-148.88;100.00;75074.50;5014254;28;20032;-85
2022/11/16 07:29:06;;;;;;;34.92;23.13;;;;;;;-148.88;100.00;75074.50;5014204;28;20026;-85
2022/11/16 07:31:32;;;;;;;35.20;23.98;;;;;;;-148.88;100.00;75078.56;5015691;28;20054;-85
2022/11/16 07:33:57;;;;;;;26.70;13.85;;;;;;;-148.88;100.00;75080.59;5014490;28;20030;-86
2022/11/16 07:36:23;;;;;;;29.75;13.70;;;;;;;-148.88;100.00;75076.53;5013329;28;20053;-85
2022/11/16 07:38:49;;;;;;;29.50;13.80;;;;;;;-148.88;100.00;75078.56;5015636;28;20029;-85
2022/11/16 07:41:18;;;;;;;36.55;24.02;;;;;;;-148.88;100.00;75086.69;5017963;28;20022;-85
2022/11/16 07:43:44;;;;;;;35.75;23.70;;;;;;;-148.88;100.00;75082.63;5018221;28;20030;-86
2022/11/16 07:46:17;;;;;;;37.75;24.83;;;;;;;-148.88;100.00;75084.66;5018405;28;20028;-85
2022/11/16 07:48:43;;;;;;;28.63;13.10;;;;;;;-148.88;100.00;75082.63;5018047;28;20469;-85
2022/11/16 07:51:12;;;;;;;27.13;14.75;;;;;;;-148.88;100.00;75090.72;5017758;28;20030;-85
2022/11/16 07:53:37;;;;;;;33.78;22.80;;;;;;;-148.88;100.00;75090.72;5016847;28;20125;-84
2022/11/16 07:56:04;;;;;;;29.50;14.30;;;;;;;-148.88;100.00;75086.69;5018051;28;20029;-85
2022/11/16 07:58:32;;;;;;;26.95;13.07;;;;;;;-148.88;100.00;75090.72;5017299;28;20018;-85
2022/11/16 08:01:13;;;;;;;38.50;24.40;;;;;;;-148.88;100.00;75092.78;5017276;28;20026;-85
2022/11/16 08:03:39;;;;;;;28.35;13.48;;;;;;;-148.88;100.00;75094.81;5017772;28;20022;-85
2022/11/16 08:06:10;;;;;;;27.45;12.88;;;;;;;-148.88;100.00;75090.72;5020455;28;20029;-85
2022/11/16 08:08:35;;;;;;;23.85;12.65;;;;;;;-148.88;100.00;75100.88;5019212;28;20030;-85
2022/11/16 08:11:03;;;;;;;28.80;14.70;;;;;;;-148.88;100.00;75094.81;5017651;28;20495;-86
2022/11/16 08:13:30;;;;;;;34.67;23.05;;;;;;;-148.88;100.00;75096.81;5015870;28;20022;-86
2022/11/16 08:16:08;;;;;;;25.75;12.88;;;;;;;-148.88;100.00;75096.81;5015571;28;20096;-85
2022/11/16 08:18:34;;;;;;;27.60;13.75;;;;;;;-148.88;100.00;75104.94;5015478;28;20022;-86
2022/11/16 08:21:03;;;;;;;35.88;23.95;;;;;;;-148.88;100.00;75106.97;5016961;28;20099;-85
2022/11/16 08:23:29;;;;;;;41.75;25.52;;;;;;;-148.88;100.00;75098.84;5016798;28;20049;-85
2022/11/16 08:26:04;;;;;;;35.47;24.58;;;;;;;-148.88;100.00;75094.81;5016717;28;20404;-85
2022/11/16 08:28:30;;;;;;;43.13;26.83;;;;;;;-148.88;100.00;75098.84;5016911;28;20026;-85
2022/11/16 08:30:56;;;;;;;42.95;25.70;;;;;;;-148.88;100.00;75094.81;5016525;28;20017;-85
2022/11/16 08:33:23;;;;;;;40.22;26.92;;;;;;;-148.88;100.00;75102.91;5016528;28;20072;-84
2022/11/16 08:35:53;;;;;;;25.15;13.75;;;;;;;-148.88;100.00;75098.84;5016704;28;20476;-85
2022/11/16 08:38:18;;;;;;;32.88;14.38;;;;;;;-148.88;100.00;75098.84;5015638;28;20030;-85
2022/11/16 08:40:44;;;;;;;32.25;15.23;;;;;;;-148.88;100.00;75106.97;5014996;28;20049;-84
2022/11/16 08:43:10;;;;;;;31.88;15.27;;;;;;;-148.88;100.00;75098.84;5016594;28;20049;-85
2022/11/16 08:45:36;;;;;;;36.53;25.35;;;;;;;-148.88;100.00;75104.94;5016490;28;20029;-85
2022/11/16 08:48:02;;;;;;;41.22;27.02;;;;;;;-148.88;100.00;75098.84;5016428;28;20033;-86
2022/11/16 08:50:27;;;;;;;33.13;14.48;;;;;;;-148.88;100.00;75094.81;5015380;28;20026;-85
2022/11/16 08:52:52;;;;;;;29.33;14.73;;;;;;;-148.88;100.00;75090.72;5016457;28;20480;-85
2022/11/16 08:55:18;;;;;;;38.58;24.67;;;;;;;-148.88;100.00;75094.81;5016395;28;20567;-85
2022/11/16 08:57:44;;;;;;;40.65;24.73;;;;;;;-148.88;100.00;75086.69;5016357;28;20030;-86
2022/11/16 09:00:10;;;;;;;28.05;13.68;;;;;;;-148.88;100.00;75082.63;5016149;28;20124;-85
2022/11/16 09:02:36;;;;;;;30.63;14.05;;;;;;;-148.88;100.00;75086.69;5015871;28;20481;-86
2022/11/16 09:05:03;;;;;;;36.53;25.10;;;;;;;-148.88;100.00;75084.66;5016316;28;20076;-85
2022/11/16 09:07:28;;;;;;;34.38;24.25;;;;;;;-148.88;100.00;75082.63;5015961;28;20100;-85
2022/11/16 09:09:54;;;;;;;37.83;24.88;;;;;;;-148.88;100.00;75070.44;5015767;28;20471;-86
2022/11/16 09:12:19;;;;;;;38.80;25.05;;;;;;;-148.88;100.00;75078.56;5016122;28;20032;-85
2022/11/16 09:14:44;;;;;;;26.98;12.85;;;;;;;-148.88;100.00;75076.53;5015978;28;20026;-85
2022/11/16 09:17:10;;;;;;;38.15;24.27;;;;;;;-148.88;100.00;75068.41;5015962;28;20021;-85
2022/11/16 09:19:35;;;;;;;37.13;24.90;;;;;;;-148.88;100.00;75068.41;5015548;28;20369;-86
2022/11/16 09:22:00;;;;;;;40.63;26.30;;;;;;;-148.88;100.00;75068.41;5014380;28;20022;-85
2022/11/16 09:24:25;;;;;;;40.50;25.98;;;;;;;-148.88;100.00;75070.44;5014352;28;20498;-85
2022/11/16 09:26:51;;;;;;;36.03;24.77;;;;;;;-148.88;100.00;75068.41;5015595;28;20435;-86
2022/11/16 09:29:16;;;;;;;29.15;13.95;;;;;;;-148.88;100.00;75072.47;5015455;28;20104;-85
2022/11/16 09:31:41;;;;;;;37.80;25.65;;;;;;;-148.88;100.00;75070.44;5015405;28;20028;-84
2022/11/16 09:34:07;;;;;;;36.30;25.02;;;;;;;-148.88;100.00;75070.44;5015301;28;20029;-86
2022/11/16 09:36:33;;;;;;;37.13;25.08;;;;;;;-148.88;100.00;75072.47;5015685;28;20155;-85
2022/11/16 09:38:58;;;;;;;36.05;25.70;;;;;;;-148.88;100.00;75076.53;5014059;28;20022;-86
2022/11/16 09:41:39;;;;;;;37.50;25.23;;;;;;;-148.88;100.00;75076.53;5015606;28;20041;-85
2022/11/16 09:44:07;;;;;;;36.40;24.92;;;;;;;-148.88;100.00;75082.63;5015408;28;20040;-85
2022/11/16 09:46:38;;;;;;;36.10;24.70;;;;;;;-148.88;100.00;75084.66;5015268;28;20022;-86
2022/11/16 09:49:11;;;;;;;34.92;24.65;;;;;;;-148.88;100.00;75086.69;5013991;28;20032;-85
2022/11/16 09:51:40;;;;;;;32.05;22.88;;;;;;;-148.88;100.00;75084.66;5014982;28;20029;-86
2022/11/16 09:54:11;;;;;;;34.47;23.55;;;;;;;-148.88;100.00;75076.53;5014822;28;20108;-86
2022/11/16 09:56:39;;;;;;;30.80;13.52;;;;;;;-148.88;100.00;75082.63;5014825;28;20107;-86
2022/11/16 09:59:07;;;;;;;30.60;14.48;;;;;;;-148.88;100.00;75070.44;5014763;28;20029;-85
2022/11/16 10:01:37;;;;;;;25.10;13.38;;;;;;;-148.88;100.00;75078.56;5014639;28;20421;-86
2022/11/16 10:04:10;;;;;;;26.48;13.38;;;;;;;-148.88;100.00;75070.44;5014820;28;20030;-86
2022/11/16 10:07:04;;;;;;;24.42;12.77;;;;;;;-148.88;100.00;75066.38;5014980;28;20083;-86
2022/11/16 10:09:29;;;;;;;31.10;21.23;;;;;;;-148.88;100.00;75066.38;5013165;28;20037;-86
2022/11/16 10:12:18;;;;;;;24.48;12.70;;;;;;;-148.88;100.00;75062.31;5014476;28;20034;-86
2022/11/16 10:15:14;;;;;;;21.67;11.43;;;;;;;-148.88;100.00;75058.25;5014683;28;20034;-86
2022/11/16 10:18:12;;;;;;;26.67;13.48;;;;;;;-148.88;100.00;75042.00;5014863;28;20036;-86
2022/11/16 10:21:11;;;;;;;34.53;22.83;;;;;;;-148.88;100.00;75033.88;5013187;28;20022;-86
2022/11/16 10:23:55;;;;;;;21.83;12.02;;;;;;;-148.88;100.00;75025.75;5013391;28;20026;-86
2022/11/16 10:26:44;;;;;;;;;;;;;;;-148.88;100.00;75013.56;5014777;28;20558;-86
2022/11/16 10:29:23;;;;;;;22.70;11.82;;;;;;;-148.88;100.00;75013.56;5014549;28;19909;-87
2022/11/16 10:31:57;;;;;;;22.95;11.77;;;;;;;-148.88;100.00;75001.38;5014209;28;20091;-86
2022/11/16 10:34:33;;;;;;;25.42;19.27;;;;;;;-148.88;100.00;74997.31;5012928;28;20026;-86
2022/11/16 10:37:03;;;;;;;25.67;18.80;;;;;;;-148.88;100.00;74995.28;5014037;28;20029;-85
2022/11/16 10:39:31;;;;;;;25.95;18.77;;;;;;;-148.88;100.00;74985.13;5013814;28;20112;-86
2022/11/16 10:42:04;;;;;;;22.05;16.73;;;;;;;-148.88;100.00;74985.13;5014183;28;20030;-86
2022/11/16 10:44:54;;;;;;;20.30;15.30;;;;;;;-148.88;100.00;74983.09;5014032;28;20025;-86
2022/11/16 10:47:40;;;;;;;18.77;9.43;;;;;;;-148.88;100.00;74977.00;5014111;28;20026;-86
2022/11/16 10:50:36;;;;;;;16.55;10.98;;;;;;;-148.88;100.00;74970.91;5012612;28;20017;-85
2022/11/16 10:53:02;;;;;;;18.95;13.73;;;;;;;-148.88;100.00;74968.88;5010024;28;20034;-85
2022/11/16 10:55:27;;;;;;;18.77;14.00;;;;;;;-148.88;100.00;74979.03;5014245;28;20175;-85
2022/11/16 10:58:04;;;;;;;21.50;14.07;;;;;;;-148.88;100.00;74960.75;5012300;28;20055;-86
2022/11/16 11:00:50;;;;;;;21.08;14.18;;;;;;;-148.88;100.00;74958.72;5014007;28;20030;-86
2022/11/16 11:03:29;;;;;;;16.17;13.60;;;;;;;-148.88;100.00;74962.78;5013991;28;20424;-86
2022/11/16 11:05:54;;;;;;;18.52;13.95;;;;;;;-148.88;100.00;74958.72;5013692;28;20041;-86
2022/11/16 11:08:26;;;;;;;18.85;14.13;;;;;;;-148.88;100.00;74956.69;5013722;28;20022;-87
2022/11/16 11:14:02;;;;;;;20.75;15.23;;;;;;;-148.88;100.00;74948.56;5038979;28;20029;-76
2022/11/16 11:16:28;;;;;;;16.63;14.15;;;;;;;-148.88;100.00;74936.41;5033407;28;20419;-77
2022/11/16 11:18:53;;;;;;;23.27;15.18;;;;;;;-148.88;100.00;74926.25;5032975;28;20040;-77
2022/11/16 11:21:22;;;;;;;16.80;12.68;;;;;;;-148.88;100.00;74940.47;5032967;28;20021;-77
2022/11/16 11:23:50;;;;;;;18.20;13.32;;;;;;;-148.88;100.00;74934.38;5031425;28;20117;-77
2022/11/16 11:26:29;;;;;;;15.98;12.48;;;;;;;-148.88;100.00;74924.22;5033053;28;20028;-77
2022/11/16 11:28:55;;;;;;;15.75;12.60;;;;;;;-148.88;100.00;74918.13;5032818;28;20495;-77
2022/11/16 11:31:49;;;;;;;18.83;13.88;;;;;;;-148.88;100.00;74918.13;5032952;28;20040;-77
2022/11/16 11:34:36;;;;;;;16.92;13.02;;;;;;;-148.88;100.00;74924.22;5031634;28;20067;-77
2022/11/16 11:37:03;;;;;;;20.33;12.98;;;;;;;-148.88;100.00;74920.16;5025579;28;20151;-77
2022/11/16 11:39:32;;;;;;;18.73;13.20;;;;;;;-148.88;100.00;74916.09;5032634;28;20056;-77
2022/11/16 11:42:13;;;;;;;21.73;13.25;;;;;;;-148.88;100.00;74899.84;5032774;28;20041;-77
2022/11/16 11:44:50;;;;;;;18.55;12.73;;;;;;;-148.88;100.00;74883.59;5033126;28;20392;-77
2022/11/16 11:47:35;;;;;;;17.65;13.32;;;;;;;-148.88;100.00;74899.84;5031288;28;20061;-77
2022/11/16 11:50:10;;;;;;;18.20;13.35;;;;;;;-148.88;100.00;74895.78;5032559;28;20069;-77
2022/11/16 11:52:46;;;;;;;17.48;13.48;;;;;;;-148.88;100.00;74883.59;5032748;28;20038;-77
2022/11/16 11:55:16;;;;;;;18.98;13.02;;;;;;;-148.88;100.00;74887.66;5032841;28;20025;-77